Time;durP1;ratioP1;P1;durP2;ratioP2;P2;SDS_P1;SDS_P2;PMS_P1;PMS_P2;Temp;Humidity;BMP_temperature;BMP_pressure;BME280_temperature;BME280_humidity;BME280_pressure;Samples;Min_cycle;Max_cycle;Signal;HPM_P1;HPM_P2
2022/09/02 00:00:51;;;;;;;0.73;0.20;;;;;;;13.31;70.96;102008.09;2080564;28;20184;-66
2022/09/02 00:01:53;;;;;;;1.92;0.20;;;;;;;13.33;70.52;102008.97;2080275;28;31084;-67
2022/09/02 00:02:55;;;;;;;0.82;0.20;;;;;;;13.33;70.46;102003.59;2080438;28;34426;-67
2022/09/02 00:04:02;;;;;;;1.98;0.20;;;;;;;13.28;71.10;102010.81;2079645;28;42152;-67
2022/09/02 00:05:05;;;;;;;1.02;0.25;;;;;;;13.28;71.00;102009.91;2080725;28;25540;-67
2022/09/02 00:06:07;;;;;;;0.85;0.20;;;;;;;13.27;70.66;102003.66;2079263;28;34669;-67
2022/09/02 00:07:09;;;;;;;1.45;0.20;;;;;;;13.28;70.96;102004.53;2080968;28;20046;-67
2022/09/02 00:08:11;;;;;;;2.08;0.20;;;;;;;13.26;70.90;102007.28;2087480;28;30001;-67
2022/09/02 00:09:16;;;;;;;1.52;0.20;;;;;;;13.22;71.20;102010.03;2079842;28;26128;-67
2022/09/02 00:10:20;;;;;;;1.00;0.20;;;;;;;13.19;71.27;102005.59;2080146;28;22600;-67
2022/09/02 00:11:27;;;;;;;0.50;0.20;;;;;;;13.15;70.66;102012.84;2079689;28;34120;-67
2022/09/02 00:12:29;;;;;;;0.40;0.20;;;;;;;13.14;71.70;102002.09;2080676;28;20038;-67
2022/09/02 00:13:32;;;;;;;0.80;0.20;;;;;;;13.14;71.74;102008.34;2080281;28;33527;-68
2022/09/02 00:14:37;;;;;;;0.63;0.10;;;;;;;13.13;71.28;102006.56;2079681;28;33791;-67
2022/09/02 00:15:39;;;;;;;0.65;0.20;;;;;;;13.15;71.28;102001.16;2079711;28;27134;-66
2022/09/02 00:16:50;;;;;;;0.70;0.20;;;;;;;13.10;71.73;102003.94;2072442;28;20030;-67
2022/09/02 00:17:53;;;;;;;0.43;0.20;;;;;;;13.07;72.07;102011.19;2079530;28;36659;-67
2022/09/02 00:18:57;;;;;;;0.88;0.30;;;;;;;13.04;71.48;102003.16;2080533;28;21965;-67
2022/09/02 00:20:00;;;;;;;3.65;0.30;;;;;;;13.07;72.08;102000.44;2080090;28;35326;-67
2022/09/02 00:21:02;;;;;;;1.42;0.20;;;;;;;13.01;72.14;102014.84;2079620;28;27803;-67
2022/09/02 00:22:04;;;;;;;1.58;0.20;;;;;;;12.99;72.34;102009.50;2079711;28;29101;-67
2022/09/02 00:23:07;;;;;;;1.70;0.20;;;;;;;12.93;72.48;102009.56;2079510;28;27410;-67
2022/09/02 00:24:09;;;;;;;0.43;0.20;;;;;;;12.92;72.09;102007.81;2079195;28;38188;-67
2022/09/02 00:25:11;;;;;;;2.08;0.38;;;;;;;12.88;72.65;102006.06;2079322;28;35267;-67
2022/09/02 00:26:14;;;;;;;0.98;0.30;;;;;;;12.89;72.50;102001.59;2064279;28;20043;-67
2022/09/02 00:27:16;;;;;;;1.85;0.20;;;;;;;12.89;72.87;102004.28;2063950;28;26960;-66
2022/09/02 00:28:18;;;;;;;2.75;0.20;;;;;;;12.92;72.04;102006.91;2080065;28;20045;-67
2022/09/02 00:29:21;;;;;;;0.73;0.22;;;;;;;12.89;72.57;102006.97;2078769;28;20042;-67
2022/09/02 00:30:25;;;;;;;2.25;0.28;;;;;;;12.84;72.86;102007.03;2071980;28;20165;-67
2022/09/02 00:31:27;;;;;;;0.90;0.30;;;;;;;12.82;72.87;102006.19;2079478;28;26512;-67
2022/09/02 00:32:29;;;;;;;0.65;0.20;;;;;;;12.84;72.95;102019.59;2080754;28;22699;-67
2022/09/02 00:33:31;;;;;;;1.55;0.30;;;;;;;12.76;72.86;102006.28;2078795;28;20034;-67
2022/09/02 00:34:33;;;;;;;0.55;0.20;;;;;;;12.78;73.26;101999.97;2064052;28;20888;-67
2022/09/02 00:35:36;;;;;;;1.52;0.20;;;;;;;12.72;73.56;102004.53;2072117;28;20194;-67
2022/09/02 00:36:39;;;;;;;1.70;0.20;;;;;;;12.74;73.42;102002.69;2071550;28;20073;-65
2022/09/02 00:37:41;;;;;;;1.38;0.30;;;;;;;12.71;73.51;102006.34;2072335;28;20045;-67
2022/09/02 00:38:43;;;;;;;0.55;0.20;;;;;;;12.66;73.60;101993.88;2079142;28;33614;-67
2022/09/02 00:39:48;;;;;;;0.80;0.20;;;;;;;12.67;73.47;102004.63;2071680;28;22097;-67
2022/09/02 00:40:50;;;;;;;1.08;0.30;;;;;;;12.63;74.07;102002.84;2080316;28;20793;-67
2022/09/02 00:41:52;;;;;;;0.82;0.20;;;;;;;12.63;74.36;102000.16;2080549;28;20160;-67
2022/09/02 00:42:55;;;;;;;2.95;0.30;;;;;;;12.59;73.82;101999.31;2080042;28;20346;-67
2022/09/02 00:44:02;;;;;;;0.80;0.30;;;;;;;12.58;74.37;101996.69;2079580;28;20088;-67
2022/09/02 00:45:07;;;;;;;3.13;0.32;;;;;;;12.55;74.46;101997.59;2080467;28;20045;-67
2022/09/02 00:46:11;;;;;;;1.23;0.20;;;;;;;12.59;74.91;101996.63;2080844;28;20069;-67
2022/09/02 00:47:14;;;;;;;1.20;0.22;;;;;;;12.55;74.46;101997.59;2079914;28;30646;-67
2022/09/02 00:48:16;;;;;;;1.75;0.30;;;;;;;12.52;74.23;102005.69;2079151;28;29156;-66
2022/09/02 00:49:28;;;;;;;0.43;0.20;;;;;;;12.58;75.19;101994.00;2079652;28;20053;-67
2022/09/02 00:50:35;;;;;;;2.25;0.30;;;;;;;12.54;74.81;101995.84;2079791;28;20094;-66
2022/09/02 00:52:01;;;;;;;1.35;0.20;;;;;;;12.55;75.22;101997.59;2079515;28;20128;-67
2022/09/02 00:53:08;;;;;;;1.75;0.30;;;;;;;12.59;74.87;101993.06;2088165;28;20049;-67
2022/09/02 00:54:16;;;;;;;1.75;0.30;;;;;;;12.53;74.77;101990.50;2086524;28;20148;-67
2022/09/02 00:55:29;;;;;;;2.08;0.30;;;;;;;12.54;75.51;101990.47;2079714;28;32411;-66
2022/09/02 00:56:33;;;;;;;1.17;0.32;;;;;;;12.56;75.71;101994.03;2073349;28;25130;-66
2022/09/02 00:57:55;;;;;;;1.60;0.40;;;;;;;12.53;75.55;101994.06;2079829;28;20094;-66
2022/09/02 00:58:59;;;;;;;2.15;0.30;;;;;;;12.56;75.48;101985.06;2080499;28;20042;-67
2022/09/02 01:00:16;;;;;;;1.10;0.30;;;;;;;12.56;75.42;101990.41;2079501;28;20168;-67
2022/09/02 01:01:19;;;;;;;2.05;0.40;;;;;;;12.55;74.85;101989.53;2080518;28;20073;-67
2022/09/02 01:02:24;;;;;;;3.20;0.38;;;;;;;12.61;75.37;101985.88;2080057;28;24058;-67
2022/09/02 01:03:30;;;;;;;2.95;0.30;;;;;;;12.58;75.61;101988.63;2079395;28;20079;-66
2022/09/02 01:04:34;;;;;;;3.15;0.30;;;;;;;12.56;75.12;101988.66;2072720;28;20035;-66
2022/09/02 01:05:43;;;;;;;3.17;0.30;;;;;;;12.52;75.40;101991.38;2071854;28;20039;-67
2022/09/02 01:06:47;;;;;;;4.37;0.30;;;;;;;12.54;75.89;101989.56;2071648;28;20046;-66
2022/09/02 01:07:53;;;;;;;1.75;0.30;;;;;;;12.53;75.46;101996.75;2071220;28;25153;-65
2022/09/02 01:09:04;;;;;;;2.08;0.30;;;;;;;12.55;75.52;101989.53;2071218;28;22475;-67
2022/09/02 01:10:14;;;;;;;3.53;0.32;;;;;;;12.57;75.58;101990.41;2056738;28;20166;-67
2022/09/02 01:11:18;;;;;;;1.13;0.30;;;;;;;12.64;75.56;101983.16;2065910;28;20137;-66
2022/09/02 01:12:26;;;;;;;2.05;0.50;;;;;;;12.66;74.77;101972.38;2071254;28;20192;-67
2022/09/02 01:13:36;;;;;;;3.28;0.30;;;;;;;12.64;75.14;101983.16;2072020;28;20042;-66
2022/09/02 01:14:38;;;;;;;0.93;0.30;;;;;;;12.59;75.52;101988.56;2078610;28;20042;-67
2022/09/02 01:15:48;;;;;;;0.90;0.30;;;;;;;12.55;75.03;101981.47;2071673;28;25732;-66
2022/09/02 01:16:54;;;;;;;1.52;0.60;;;;;;;12.51;75.50;101978.88;2072228;28;20131;-66
2022/09/02 01:17:57;;;;;;;0.98;0.30;;;;;;;12.47;75.34;101985.19;2071137;28;20043;-67
2022/09/02 01:19:02;;;;;;;1.02;0.30;;;;;;;12.47;76.38;101987.88;2063260;28;20049;-66
2022/09/02 01:20:10;;;;;;;2.22;0.30;;;;;;;12.45;75.65;101977.16;2056521;28;20046;-67
2022/09/02 01:21:13;;;;;;;3.67;0.30;;;;;;;12.41;75.43;101980.78;2065426;28;23663;-66
2022/09/02 01:22:25;;;;;;;1.80;0.38;;;;;;;12.38;76.34;101984.41;2071248;28;25980;-67
2022/09/02 01:23:29;;;;;;;0.75;0.30;;;;;;;12.36;76.61;101974.59;2071226;28;20034;-66
2022/09/02 01:24:33;;;;;;;1.85;0.52;;;;;;;12.39;75.96;101974.56;2071094;28;20125;-64
2022/09/02 01:25:35;;;;;;;2.35;0.60;;;;;;;12.39;76.06;101977.25;2071051;28;31341;-67
2022/09/02 01:26:38;;;;;;;1.00;0.30;;;;;;;12.34;75.98;101977.28;2071797;28;20121;-67
2022/09/02 01:27:40;;;;;;;1.48;0.50;;;;;;;12.33;75.98;101971.97;2072173;28;20109;-66
2022/09/02 01:28:44;;;;;;;1.20;0.30;;;;;;;12.32;76.64;101970.19;2071595;28;21205;-66
2022/09/02 01:29:53;;;;;;;1.60;0.40;;;;;;;12.32;76.61;101973.75;2079523;28;20177;-66
2022/09/02 01:30:54;;;;;;;2.13;0.40;;;;;;;12.30;76.62;101970.19;2078444;28;20077;-66
2022/09/02 01:31:56;;;;;;;2.63;0.50;;;;;;;12.33;77.12;101970.16;2070663;28;31674;-67
2022/09/02 01:32:59;;;;;;;2.50;0.50;;;;;;;12.31;76.75;101973.75;2071344;28;20037;-67
2022/09/02 01:34:02;;;;;;;2.35;0.50;;;;;;;12.30;76.46;101970.19;2072030;28;21013;-66
2022/09/02 01:35:05;;;;;;;1.67;0.50;;;;;;;12.34;76.29;101971.03;2071405;28;20038;-67
2022/09/02 01:36:09;;;;;;;1.23;0.40;;;;;;;12.34;76.04;101971.03;2078619;28;20042;-67
2022/09/02 01:37:11;;;;;;;0.88;0.30;;;;;;;12.28;76.31;101976.50;2079559;28;24777;-66
2022/09/02 01:38:14;;;;;;;2.97;0.40;;;;;;;12.30;77.12;101966.63;2080478;28;20034;-66
2022/09/02 01:39:16;;;;;;;2.88;0.43;;;;;;;12.27;76.96;101972.91;2080206;28;20124;-66
2022/09/02 01:40:18;;;;;;;2.40;0.47;;;;;;;12.23;76.58;101969.38;2079496;28;20069;-66
2022/09/02 01:41:24;;;;;;;1.40;0.40;;;;;;;12.26;77.42;101970.25;2079480;28;20077;-67
2022/09/02 01:42:26;;;;;;;2.05;0.40;;;;;;;12.26;77.31;101970.25;2081289;28;20039;-67
2022/09/02 01:43:28;;;;;;;2.00;0.32;;;;;;;12.26;77.44;101967.56;2080720;28;20912;-67
2022/09/02 01:44:32;;;;;;;1.10;0.40;;;;;;;12.26;77.44;101956.81;2081193;28;20038;-66
2022/09/02 01:45:36;;;;;;;2.17;0.38;;;;;;;12.21;77.67;101965.84;2073009;28;20902;-67
2022/09/02 01:46:38;;;;;;;0.80;0.22;;;;;;;12.26;77.31;101967.56;2082111;28;20037;-67
2022/09/02 01:47:41;;;;;;;2.70;0.50;;;;;;;12.24;77.37;101967.59;2072566;28;20049;-67
2022/09/02 01:48:46;;;;;;;1.95;0.38;;;;;;;12.22;77.60;101956.88;2057060;28;20050;-67
2022/09/02 01:49:49;;;;;;;1.00;0.30;;;;;;;12.22;77.55;101962.25;2073434;28;20042;-67
2022/09/02 01:51:01;;;;;;;1.98;0.40;;;;;;;12.18;77.54;101963.19;2081179;28;20123;-65
2022/09/02 01:52:03;;;;;;;3.28;0.50;;;;;;;12.16;78.08;101956.94;2081109;28;20514;-67
2022/09/02 01:53:06;;;;;;;1.33;0.40;;;;;;;12.12;78.20;101955.22;2089022;28;20952;-67
2022/09/02 01:54:08;;;;;;;3.60;0.40;;;;;;;12.09;78.15;101957.94;2089030;28;20119;-67
2022/09/02 01:55:10;;;;;;;1.90;0.60;;;;;;;12.04;77.69;101951.72;2089540;28;20909;-67
2022/09/02 01:56:12;;;;;;;1.80;0.32;;;;;;;12.06;78.78;101955.31;2080615;28;20041;-67
2022/09/02 01:57:18;;;;;;;3.33;0.40;;;;;;;12.05;78.97;101952.66;2065206;28;20800;-67
2022/09/02 01:58:20;;;;;;;1.42;0.40;;;;;;;12.05;78.40;101953.53;2073505;28;20051;-67
2022/09/02 01:59:22;;;;;;;2.08;0.38;;;;;;;11.99;78.22;101951.81;2072317;28;20181;-67
2022/09/02 02:00:25;;;;;;;2.47;0.60;;;;;;;11.96;78.97;101948.28;2071124;28;20050;-67
2022/09/02 02:01:27;;;;;;;1.10;0.50;;;;;;;11.95;78.63;101946.50;2064371;28;20046;-67
2022/09/02 02:02:29;;;;;;;1.33;0.43;;;;;;;11.95;79.33;101950.09;2064584;28;20211;-67
2022/09/02 02:03:37;;;;;;;2.90;0.50;;;;;;;11.92;79.37;101944.75;2065036;28;20071;-67
2022/09/02 02:04:39;;;;;;;2.00;0.30;;;;;;;11.94;79.44;101950.97;2056861;28;20074;-67
2022/09/02 02:05:40;;;;;;;1.40;0.47;;;;;;;11.96;79.45;101946.47;2064370;28;20162;-67
2022/09/02 02:06:47;;;;;;;1.58;0.50;;;;;;;12.01;79.01;101947.31;2072373;28;20069;-67
2022/09/02 02:07:49;;;;;;;2.35;0.50;;;;;;;11.95;78.75;101949.16;2072704;28;20911;-67
2022/09/02 02:08:51;;;;;;;2.05;0.30;;;;;;;11.94;79.06;101952.78;2072332;28;20093;-67
2022/09/02 02:09:53;;;;;;;4.50;0.60;;;;;;;11.95;79.24;101950.09;2072288;28;20872;-67
2022/09/02 02:10:56;;;;;;;1.00;0.40;;;;;;;11.92;79.37;101949.22;2072156;28;20197;-67
2022/09/02 02:11:58;;;;;;;1.10;0.40;;;;;;;11.94;79.22;101944.72;2072767;28;20043;-67
2022/09/02 02:13:03;;;;;;;1.55;0.45;;;;;;;11.92;80.38;101946.53;2072658;28;20049;-67
2022/09/02 02:14:07;;;;;;;2.42;0.40;;;;;;;11.93;79.80;101956.34;2064590;28;20039;-67
2022/09/02 02:15:16;;;;;;;2.85;0.40;;;;;;;11.92;79.30;101947.44;2064303;28;20947;-66
2022/09/02 02:16:18;;;;;;;1.17;0.38;;;;;;;11.87;79.45;101949.25;2073600;28;20093;-67
2022/09/02 02:17:21;;;;;;;3.33;0.68;;;;;;;11.83;80.03;101950.19;2080474;28;20181;-66
2022/09/02 02:18:23;;;;;;;1.00;0.50;;;;;;;11.79;80.12;101948.44;2063857;28;20929;-67
2022/09/02 02:19:25;;;;;;;4.20;0.60;;;;;;;11.84;79.85;101955.53;2072590;28;20069;-67
2022/09/02 02:20:27;;;;;;;2.08;0.50;;;;;;;11.78;80.17;101952.91;2072561;28;20059;-68
2022/09/02 02:21:31;;;;;;;1.25;0.40;;;;;;;11.74;80.32;101950.31;2072322;28;20211;-67
2022/09/02 02:22:33;;;;;;;1.55;0.60;;;;;;;11.71;80.24;101948.53;2080541;28;20039;-67
2022/09/02 02:23:37;;;;;;;1.55;0.40;;;;;;;11.70;80.49;101946.78;2073021;28;20124;-68
2022/09/02 02:24:40;;;;;;;1.05;0.32;;;;;;;11.66;80.50;101945.00;2064595;28;20173;-67
2022/09/02 02:25:42;;;;;;;1.88;0.43;;;;;;;11.67;80.85;101946.78;2064775;28;20950;-67
2022/09/02 02:26:45;;;;;;;1.75;0.40;;;;;;;11.66;81.03;101947.69;2072485;28;20043;-67
2022/09/02 02:27:48;;;;;;;2.97;0.50;;;;;;;11.68;81.39;101947.66;2072529;28;20164;-67
2022/09/02 02:28:50;;;;;;;3.13;0.40;;;;;;;11.72;81.54;101946.72;2072701;28;20113;-67
2022/09/02 02:29:52;;;;;;;0.95;0.50;;;;;;;11.70;81.41;101941.41;2072049;28;20046;-67
2022/09/02 02:30:57;;;;;;;2.50;0.40;;;;;;;11.68;81.26;101936.94;2072386;28;21093;-67
2022/09/02 02:31:58;;;;;;;1.73;0.60;;;;;;;11.71;81.21;101943.16;2063758;28;20039;-68
2022/09/02 02:33:01;;;;;;;5.22;0.60;;;;;;;11.70;81.22;101945.84;2080252;28;20156;-67
2022/09/02 02:34:03;;;;;;;4.22;0.50;;;;;;;11.67;81.23;101938.75;2079784;28;20893;-67
2022/09/02 02:35:07;;;;;;;5.15;0.45;;;;;;;11.69;81.28;101941.41;2080585;28;20877;-67
2022/09/02 02:36:10;;;;;;;1.65;0.65;;;;;;;11.67;81.50;101940.56;2072092;28;20049;-67
2022/09/02 02:37:14;;;;;;;1.13;0.50;;;;;;;11.65;81.17;101937.88;2063964;28;20051;-68
2022/09/02 02:38:16;;;;;;;1.15;0.52;;;;;;;11.61;81.09;101936.13;2072118;28;20054;-68
2022/09/02 02:39:19;;;;;;;2.92;0.60;;;;;;;11.61;81.41;101936.13;2073030;28;20129;-68
2022/09/02 02:40:23;;;;;;;2.70;0.60;;;;;;;11.61;81.28;101937.03;2072939;28;20043;-67
2022/09/02 02:41:26;;;;;;;0.90;0.50;;;;;;;11.58;81.38;101936.19;2073125;28;20042;-68
2022/09/02 02:42:28;;;;;;;1.83;0.40;;;;;;;11.56;81.96;101927.25;2080410;28;20041;-68
2022/09/02 02:43:32;;;;;;;1.52;0.50;;;;;;;11.57;81.70;101929.91;2080507;28;20034;-67
2022/09/02 02:44:35;;;;;;;1.10;0.50;;;;;;;11.58;81.77;101930.81;2080239;28;20148;-68
2022/09/02 02:45:37;;;;;;;3.95;0.68;;;;;;;11.54;81.82;101935.31;2072945;28;20042;-67
2022/09/02 02:46:39;;;;;;;1.38;0.50;;;;;;;11.61;81.79;101936.13;2073004;28;20140;-67
2022/09/02 02:47:42;;;;;;;0.73;0.40;;;;;;;11.60;81.91;101934.34;2080386;28;21106;-67
2022/09/02 02:48:46;;;;;;;0.73;0.40;;;;;;;11.60;82.05;101927.19;2072913;28;20084;-68
2022/09/02 02:49:49;;;;;;;1.25;0.50;;;;;;;11.60;82.25;101934.34;2073491;28;20089;-67
2022/09/02 02:50:51;;;;;;;1.33;0.50;;;;;;;11.51;81.80;101929.09;2080519;28;20050;-67
2022/09/02 02:51:53;;;;;;;1.20;0.50;;;;;;;11.50;82.42;101927.31;2080601;28;20049;-68
2022/09/02 02:52:55;;;;;;;2.20;0.60;;;;;;;11.49;82.30;101926.44;2071485;28;20038;-68
2022/09/02 02:54:04;;;;;;;1.75;0.60;;;;;;;11.51;82.30;101929.97;2064595;28;20043;-68
2022/09/02 02:55:10;;;;;;;1.73;0.50;;;;;;;11.46;82.08;101927.34;2072981;28;20039;-67
2022/09/02 02:56:12;;;;;;;1.20;0.40;;;;;;;11.46;82.45;101929.13;2080380;28;20046;-68
2022/09/02 02:57:14;;;;;;;1.40;0.40;;;;;;;11.49;82.24;101930.91;2072457;28;20112;-67
2022/09/02 02:58:16;;;;;;;0.90;0.35;;;;;;;11.42;82.28;101930.09;2072704;28;20852;-68
2022/09/02 02:59:18;;;;;;;0.98;0.40;;;;;;;11.40;82.40;101923.84;2063708;28;20109;-68
2022/09/02 03:00:28;;;;;;;1.55;0.73;;;;;;;11.44;82.79;101928.28;2067601;28;20038;-67
2022/09/02 03:01:31;;;;;;;1.45;0.45;;;;;;;11.42;83.16;101922.91;2080401;28;20097;-67
2022/09/02 03:02:33;;;;;;;1.42;0.60;;;;;;;11.40;82.73;101924.72;2064565;28;20177;-68
2022/09/02 03:03:36;;;;;;;4.53;0.52;;;;;;;11.41;83.18;101922.94;2064357;28;20055;-67
2022/09/02 03:04:38;;;;;;;1.75;0.43;;;;;;;11.38;82.69;101929.22;2072109;28;20042;-67
2022/09/02 03:05:40;;;;;;;2.95;0.45;;;;;;;11.37;83.03;101915.84;2080319;28;20038;-67
2022/09/02 03:06:45;;;;;;;1.00;0.40;;;;;;;11.36;82.93;101920.31;2079942;28;20103;-67
2022/09/02 03:07:49;;;;;;;3.10;0.50;;;;;;;11.39;83.29;101925.63;2072549;28;20049;-68
2022/09/02 03:08:52;;;;;;;1.48;0.70;;;;;;;11.48;83.02;101913.03;2080518;28;20148;-68
2022/09/02 03:09:54;;;;;;;2.22;0.50;;;;;;;11.38;82.53;101929.22;2080446;28;20042;-67
2022/09/02 03:10:56;;;;;;;4.13;0.80;;;;;;;11.35;82.94;101915.84;2072441;28;20034;-67
2022/09/02 03:12:04;;;;;;;2.08;0.60;;;;;;;11.36;82.95;101920.31;2064802;28;20082;-67
2022/09/02 03:13:14;;;;;;;1.15;0.55;;;;;;;11.40;83.36;101915.81;2066137;28;20043;-67
2022/09/02 03:14:21;;;;;;;1.27;0.50;;;;;;;11.36;82.80;101917.63;2073918;28;20061;-67
2022/09/02 03:15:23;;;;;;;2.50;0.55;;;;;;;11.31;82.88;101916.78;2080187;28;20042;-67
2022/09/02 03:16:27;;;;;;;2.25;0.50;;;;;;;11.31;83.73;101919.47;2088433;28;20038;-67
2022/09/02 03:17:29;;;;;;;0.95;0.45;;;;;;;11.31;83.83;101916.78;2072215;28;20827;-67
2022/09/02 03:18:32;;;;;;;2.60;0.30;;;;;;;11.28;83.72;101922.16;2080198;28;27406;-68
2022/09/02 03:19:34;;;;;;;2.40;0.52;;;;;;;11.30;83.95;101916.81;2088158;28;20168;-67
2022/09/02 03:20:39;;;;;;;1.02;0.47;;;;;;;11.30;83.92;101919.47;2080455;28;20042;-67
2022/09/02 03:21:42;;;;;;;1.20;0.40;;;;;;;11.31;83.58;101915.91;2080593;28;20046;-68
2022/09/02 03:22:49;;;;;;;1.65;0.50;;;;;;;11.31;84.35;101918.59;2072203;28;20039;-68
2022/09/02 03:23:53;;;;;;;2.08;0.60;;;;;;;11.27;83.93;101915.06;2064457;28;20828;-67
2022/09/02 03:24:55;;;;;;;1.30;0.50;;;;;;;11.34;84.04;101918.53;2072555;28;20077;-68
2022/09/02 03:25:57;;;;;;;0.93;0.50;;;;;;;11.33;83.79;101919.47;2079747;28;20077;-67
2022/09/02 03:27:09;;;;;;;1.42;0.60;;;;;;;11.38;83.59;101921.19;2078329;28;20085;-68
2022/09/02 03:28:16;;;;;;;2.20;0.68;;;;;;;11.34;83.65;101921.22;2072431;28;20027;-67
2022/09/02 03:29:19;;;;;;;1.50;0.60;;;;;;;11.29;83.83;101913.25;2072160;28;20043;-68
2022/09/02 03:30:25;;;;;;;2.45;0.50;;;;;;;11.27;83.96;101915.06;2072080;28;20130;-68
2022/09/02 03:31:29;;;;;;;3.22;0.75;;;;;;;11.33;83.83;101912.28;2072079;28;20112;-68
2022/09/02 03:32:32;;;;;;;0.73;0.50;;;;;;;11.38;83.50;101918.50;2072570;28;20050;-67
2022/09/02 03:33:34;;;;;;;1.98;0.40;;;;;;;11.29;83.61;101921.28;2072088;28;20045;-68
2022/09/02 03:34:37;;;;;;;1.23;0.50;;;;;;;11.34;83.95;101918.53;2072068;28;20511;-68
2022/09/02 03:35:42;;;;;;;4.63;0.60;;;;;;;11.35;84.04;101914.97;2080774;28;20045;-68
2022/09/02 03:36:45;;;;;;;1.52;0.50;;;;;;;11.28;83.63;101916.81;2071206;28;20044;-68
2022/09/02 03:37:52;;;;;;;0.80;0.50;;;;;;;11.25;83.97;101920.41;2056462;28;20043;-67
2022/09/02 03:38:55;;;;;;;1.50;0.70;;;;;;;11.24;84.35;101915.06;2072802;28;20042;-67
2022/09/02 03:39:57;;;;;;;1.73;0.70;;;;;;;11.25;84.16;101916.84;2079792;28;20129;-68
2022/09/02 03:40:59;;;;;;;1.75;0.70;;;;;;;11.25;84.30;101911.47;2072378;28;20607;-68
2022/09/02 03:42:03;;;;;;;1.38;0.70;;;;;;;11.28;84.37;101909.66;2080340;28;20903;-67
2022/09/02 03:43:06;;;;;;;2.55;0.52;;;;;;;11.27;83.97;101912.38;2080354;28;20811;-68
2022/09/02 03:44:09;;;;;;;1.83;0.45;;;;;;;11.27;84.18;101905.22;2072002;28;20046;-68
2022/09/02 03:45:15;;;;;;;2.38;0.43;;;;;;;11.25;83.81;101904.34;2064621;28;20903;-67
2022/09/02 03:46:18;;;;;;;2.97;0.90;;;;;;;11.23;84.11;101906.16;2071963;28;20910;-67
2022/09/02 03:47:21;;;;;;;1.55;0.60;;;;;;;11.20;84.53;101905.28;2072151;28;20030;-67
2022/09/02 03:48:25;;;;;;;1.77;0.47;;;;;;;11.19;84.44;101901.69;2072092;28;20058;-67
2022/09/02 03:49:27;;;;;;;4.45;0.80;;;;;;;11.17;84.53;101911.56;2063642;28;21068;-68
2022/09/02 03:50:35;;;;;;;1.25;0.70;;;;;;;11.21;84.91;101904.38;2071909;28;25302;-67
2022/09/02 03:51:42;;;;;;;1.17;0.50;;;;;;;11.16;84.83;101912.47;2072057;28;20047;-67
2022/09/02 03:52:44;;;;;;;1.83;0.70;;;;;;;11.13;84.72;101901.78;2080860;28;20041;-67
2022/09/02 03:53:46;;;;;;;3.58;0.80;;;;;;;11.14;85.26;101902.66;2080348;28;20057;-67
2022/09/02 03:54:51;;;;;;;1.23;0.70;;;;;;;11.11;85.01;101905.34;2072566;28;20043;-68
2022/09/02 03:55:54;;;;;;;1.63;0.63;;;;;;;11.08;85.01;101903.59;2072267;28;20089;-67
2022/09/02 03:57:00;;;;;;;1.08;0.70;;;;;;;11.06;85.13;101894.69;2064079;28;20173;-67
2022/09/02 03:58:02;;;;;;;2.80;0.90;;;;;;;11.03;85.28;101898.28;2073424;28;20030;-67
2022/09/02 03:59:10;;;;;;;1.30;0.70;;;;;;;11.02;85.55;101907.25;2079826;28;20038;-67
2022/09/02 04:00:17;;;;;;;2.85;0.85;;;;;;;11.03;85.99;101898.28;2072287;28;20050;-68
2022/09/02 04:01:23;;;;;;;2.45;0.73;;;;;;;11.02;85.28;101898.31;2080583;28;20061;-67
2022/09/02 04:02:26;;;;;;;2.65;0.88;;;;;;;11.03;85.78;101900.97;2080265;28;20042;-68
2022/09/02 04:03:28;;;;;;;2.92;0.70;;;;;;;11.04;85.58;101894.72;2079551;28;20132;-67
2022/09/02 04:04:30;;;;;;;2.03;0.70;;;;;;;11.05;85.85;101904.53;2087623;28;20865;-67
2022/09/02 04:05:32;;;;;;;1.15;0.80;;;;;;;11.04;85.58;101900.06;2088167;28;20048;-67
2022/09/02 04:06:35;;;;;;;3.67;0.80;;;;;;;11.11;85.77;101905.34;2080173;28;20037;-68
2022/09/02 04:07:39;;;;;;;1.63;0.70;;;;;;;11.12;85.48;101889.25;2071975;28;20440;-68
2022/09/02 04:08:45;;;;;;;1.80;0.75;;;;;;;11.15;85.24;101904.44;2072199;28;20085;-68
2022/09/02 04:09:47;;;;;;;1.98;0.70;;;;;;;11.14;85.05;101897.28;2063578;28;20948;-68
2022/09/02 04:10:49;;;;;;;2.95;0.75;;;;;;;11.08;84.99;101891.09;2063830;28;20071;-68
2022/09/02 04:11:51;;;;;;;3.17;0.85;;;;;;;11.10;85.49;101900.91;2079925;28;20908;-67
2022/09/02 04:12:53;;;;;;;2.35;0.80;;;;;;;11.09;85.58;101900.03;2079886;28;20899;-68
2022/09/02 04:13:55;;;;;;;1.88;0.80;;;;;;;11.10;85.54;101901.78;2079861;28;20143;-68
2022/09/02 04:15:05;;;;;;;2.10;0.80;;;;;;;11.10;85.45;101900.91;2087966;28;20159;-68
2022/09/02 04:16:19;;;;;;;2.97;0.98;;;;;;;11.08;85.60;101896.44;2088234;28;20057;-68
2022/09/02 04:17:21;;;;;;;1.88;0.80;;;;;;;11.09;85.29;101894.69;2086738;28;20060;-67
2022/09/02 04:18:23;;;;;;;2.75;0.95;;;;;;;11.08;85.75;101903.59;2079844;28;20158;-68
2022/09/02 04:19:27;;;;;;;1.77;0.90;;;;;;;11.07;85.36;101902.72;2087938;28;20104;-68
2022/09/02 04:20:29;;;;;;;2.55;1.20;;;;;;;11.10;85.71;101898.25;2088438;28;20894;-68
2022/09/02 04:21:34;;;;;;;1.58;0.88;;;;;;;11.11;85.63;101902.69;2080016;28;20119;-68
2022/09/02 04:22:36;;;;;;;1.95;1.13;;;;;;;11.10;85.31;101896.44;2080272;28;20041;-68
2022/09/02 04:23:39;;;;;;;2.40;0.98;;;;;;;11.12;85.88;101899.97;2088530;28;20927;-67
2022/09/02 04:24:40;;;;;;;4.70;0.90;;;;;;;11.11;85.51;101900.00;2079838;28;20042;-68
2022/09/02 04:25:43;;;;;;;2.20;0.90;;;;;;;11.11;85.10;101895.56;2080239;28;20133;-67
2022/09/02 04:26:49;;;;;;;3.80;1.02;;;;;;;11.10;85.51;101900.91;2071801;28;20822;-68
2022/09/02 04:27:51;;;;;;;2.50;0.85;;;;;;;11.07;85.55;101897.38;2072952;28;20035;-68
2022/09/02 04:28:53;;;;;;;6.10;1.40;;;;;;;11.09;86.03;101902.72;2079259;28;20954;-68
2022/09/02 04:29:57;;;;;;;1.75;1.40;;;;;;;11.11;85.66;101891.97;2080157;28;20041;-68
2022/09/02 04:31:09;;;;;;;5.70;1.02;;;;;;;11.06;85.62;101895.56;2080058;28;20050;-68
2022/09/02 04:32:11;;;;;;;2.22;1.00;;;;;;;11.04;85.84;101899.19;2072827;28;20046;-68
2022/09/02 04:33:13;;;;;;;4.15;1.20;;;;;;;11.06;86.10;101894.69;2079860;28;20041;-67
2022/09/02 04:34:15;;;;;;;4.55;1.05;;;;;;;11.05;85.98;101900.94;2088140;28;20049;-68
2022/09/02 04:35:18;;;;;;;7.00;1.20;;;;;;;11.05;85.86;101899.19;2080205;28;20112;-67
2022/09/02 04:36:22;;;;;;;3.47;1.63;;;;;;;11.05;85.90;101895.59;2080096;28;20058;-68
2022/09/02 04:37:27;;;;;;;4.00;1.38;;;;;;;11.02;86.00;101896.53;2079419;28;20054;-68
2022/09/02 04:38:29;;;;;;;3.05;1.27;;;;;;;11.04;86.15;101897.38;2063756;28;20177;-68
2022/09/02 04:39:31;;;;;;;2.90;1.48;;;;;;;11.04;86.04;101896.50;2071875;28;20172;-68
2022/09/02 04:40:33;;;;;;;5.88;1.63;;;;;;;11.03;85.99;101894.72;2079765;28;20811;-68
2022/09/02 04:41:37;;;;;;;4.10;1.40;;;;;;;11.06;86.01;101895.56;2072137;28;20816;-66
2022/09/02 04:42:42;;;;;;;2.70;1.50;;;;;;;11.03;86.04;101890.25;2080253;28;20247;-68
2022/09/02 04:43:45;;;;;;;3.35;1.38;;;;;;;11.03;86.06;101890.25;2080477;28;20897;-67
2022/09/02 04:44:47;;;;;;;2.17;1.45;;;;;;;11.02;86.21;101891.16;2079964;28;20054;-68
2022/09/02 04:45:51;;;;;;;4.82;1.60;;;;;;;11.05;86.12;101893.81;2080072;28;20139;-67
2022/09/02 04:46:53;;;;;;;4.22;1.52;;;;;;;11.04;85.87;101899.19;2071784;28;20046;-68
2022/09/02 04:47:56;;;;;;;4.90;2.05;;;;;;;11.02;85.83;101896.53;2071804;28;20038;-67
2022/09/02 04:48:58;;;;;;;3.90;1.60;;;;;;;11.02;86.38;101885.81;2071373;28;20045;-68
2022/09/02 04:50:00;;;;;;;3.47;1.80;;;;;;;11.00;86.08;101879.56;2071719;28;20034;-67
2022/09/02 04:51:20;;;;;;;6.18;2.10;;;;;;;10.98;86.43;101885.81;2071227;28;20043;-68
2022/09/02 04:52:26;;;;;;;4.90;1.63;;;;;;;10.99;86.54;101877.78;2081765;28;20164;-68
2022/09/02 04:53:29;;;;;;;6.28;1.63;;;;;;;11.01;86.49;101885.81;2087093;28;20056;-67
2022/09/02 04:54:31;;;;;;;4.40;1.48;;;;;;;11.01;86.40;101880.44;2071705;28;20104;-68
2022/09/02 04:55:38;;;;;;;3.75;2.03;;;;;;;11.03;86.45;101889.34;2071693;28;20031;-68
2022/09/02 04:56:41;;;;;;;2.63;1.40;;;;;;;11.10;86.27;101885.72;2064357;28;20077;-69
2022/09/02 04:57:44;;;;;;;2.60;1.20;;;;;;;11.23;85.31;101887.38;2064238;28;20051;-67